Time;durP1;ratioP1;P1;durP2;ratioP2;P2;SDS_P1;SDS_P2;PMS_P1;PMS_P2;Temp;Humidity;BMP_temperature;BMP_pressure;BME280_temperature;BME280_humidity;BME280_pressure;Samples;Min_cycle;Max_cycle;Signal;HPM_P1;HPM_P2
2021/09/26 00:01:43;;;;;;;6.17;5.67;;;25.20;53.30;;;;;;5076545;28;20227;-49
2021/09/26 00:04:08;;;;;;;7.00;6.40;;;25.30;53.50;;;;;;5074555;28;20286;-51
2021/09/26 00:06:34;;;;;;;8.83;7.93;;;25.40;53.50;;;;;;5076514;28;20188;-47
2021/09/26 00:09:00;;;;;;;7.60;6.90;;;24.90;54.70;;;;;;5078879;28;20245;-48
2021/09/26 00:11:25;;;;;;;6.70;6.20;;;24.90;54.70;;;;;;5075901;28;20563;-50
2021/09/26 00:13:51;;;;;;;9.87;6.23;;;24.70;55.00;;;;;;5076376;28;20197;-47
2021/09/26 00:16:17;;;;;;;6.27;5.77;;;24.70;54.70;;;;;;5073109;28;20199;-54
2021/09/26 00:18:43;;;;;;;6.40;5.80;;;24.80;54.70;;;;;;5074506;28;20195;-48
2021/09/26 00:21:09;;;;;;;7.23;6.57;;;24.80;54.50;;;;;;5075940;28;20786;-53
2021/09/26 00:23:35;;;;;;;6.83;6.23;;;24.90;54.30;;;;;;5078259;28;20437;-48
2021/09/26 00:26:03;;;;;;;6.97;6.00;;;25.00;54.10;;;;;;5077648;28;20277;-50
2021/09/26 00:28:29;;;;;;;5.93;5.30;;;25.00;54.10;;;;;;5073704;28;20493;-51
2021/09/26 00:30:55;;;;;;;10.10;6.20;;;25.00;54.00;;;;;;5076213;28;20531;-49
2021/09/26 00:33:21;;;;;;;7.70;7.00;;;25.10;54.00;;;;;;5075658;28;20210;-47
2021/09/26 00:35:47;;;;;;;6.40;5.80;;;25.10;53.90;;;;;;5076067;28;20442;-48
2021/09/26 00:38:13;;;;;;;7.67;6.87;;;25.10;53.70;;;;;;5075630;28;21998;-48
2021/09/26 00:40:38;;;;;;;6.60;6.00;;;25.30;53.80;;;;;;5078811;28;21260;-49
2021/09/26 00:43:05;;;;;;;6.70;6.10;;;25.10;53.70;;;;;;5076138;28;20199;-50
2021/09/26 00:45:31;;;;;;;7.63;5.70;;;25.20;53.60;;;;;;5075841;28;20232;-48
2021/09/26 00:47:57;;;;;;;6.90;6.40;;;25.10;53.70;;;;;;5075574;28;20441;-49
2021/09/26 00:50:24;;;;;;;6.53;6.03;;;25.10;53.70;;;;;;5077311;28;21098;-48
2021/09/26 00:52:50;;;;;;;6.80;6.20;;;25.20;53.60;;;;;;5077149;28;20618;-50
2021/09/26 00:55:16;;;;;;;6.27;5.83;;;25.20;53.60;;;;;;5075599;28;20482;-49
2021/09/26 00:57:44;;;;;;;7.90;7.30;;;25.20;53.80;;;;;;5072240;28;20500;-47
2021/09/26 01:00:12;;;;;;;7.53;6.83;;;25.00;54.10;;;;;;5072677;28;20988;-47
2021/09/26 01:02:38;;;;;;;6.53;6.00;;;25.00;54.20;;;;;;5072475;28;21251;-49
2021/09/26 01:05:06;;;;;;;6.77;6.10;;;25.10;54.00;;;;;;5073479;28;20441;-47
2021/09/26 01:07:59;;;;;;;8.43;5.73;;;25.10;54.00;;;;;;5077198;28;20226;-48
2021/09/26 01:10:44;;;;;;;5.90;5.30;;;25.10;54.10;;;;;;5076193;28;20936;-51
2021/09/26 01:13:18;;;;;;;7.50;5.70;;;25.00;54.10;;;;;;5076621;28;20457;-49
2021/09/26 01:15:44;;;;;;;6.57;6.07;;;24.90;54.20;;;;;;5076976;28;20854;-48
2021/09/26 01:18:26;;;;;;;6.80;6.30;;;25.00;54.20;;;;;;5078549;28;20491;-48
2021/09/26 01:20:57;;;;;;;7.17;6.47;;;25.00;54.00;;;;;;5072032;28;20236;-47
2021/09/26 01:23:57;;;;;;;6.77;6.00;;;25.10;54.00;;;;;;5072465;28;20506;-48
2021/09/26 01:26:43;;;;;;;6.70;6.10;;;25.00;53.90;;;;;;5073279;28;20458;-48
2021/09/26 01:29:28;;;;;;;6.37;5.77;;;25.00;54.20;;;;;;5075215;28;20845;-50
2021/09/26 01:31:58;;;;;;;7.50;5.70;;;24.70;54.90;;;;;;5075557;28;20453;-47
2021/09/26 01:34:39;;;;;;;6.00;5.50;;;24.70;55.00;;;;;;5074492;28;20842;-52
2021/09/26 01:37:16;;;;;;;6.20;5.70;;;24.70;54.80;;;;;;5076914;28;20499;-49
2021/09/26 01:39:48;;;;;;;5.97;5.47;;;24.80;54.80;;;;;;5077237;28;20960;-51
2021/09/26 01:42:22;;;;;;;6.83;5.97;;;24.80;54.80;;;;;;5074281;28;20834;-47
2021/09/26 01:45:00;;;;;;;7.73;6.60;;;24.80;54.60;;;;;;5073270;28;20956;-51
2021/09/26 01:47:30;;;;;;;5.83;5.30;;;24.90;54.50;;;;;;5074390;28;20468;-48
2021/09/26 01:50:03;;;;;;;6.37;5.87;;;24.80;55.00;;;;;;5076371;28;20445;-47
2021/09/26 01:52:33;;;;;;;6.20;5.60;;;24.80;54.70;;;;;;5074656;28;20446;-49
2021/09/26 01:55:00;;;;;;;7.30;6.70;;;24.80;55.10;;;;;;5069361;28;20514;-50
2021/09/26 01:57:27;;;;;;;6.60;6.00;;;24.70;55.00;;;;;;5073289;28;20532;-50
2021/09/26 01:59:59;;;;;;;5.90;5.40;;;24.70;54.80;;;;;;5075177;28;20448;-48
2021/09/26 02:02:26;;;;;;;7.10;6.40;;;24.70;54.90;;;;;;5077722;28;20455;-48
2021/09/26 02:04:59;;;;;;;6.33;5.80;;;24.80;54.90;;;;;;5071943;28;20454;-49
2021/09/26 02:07:27;;;;;;;7.37;6.70;;;24.80;54.90;;;;;;5074962;28;20532;-54
2021/09/26 02:09:53;;;;;;;7.23;6.63;;;24.60;55.20;;;;;;5074073;28;20501;-49
2021/09/26 02:12:21;;;;;;;6.10;5.60;;;24.70;55.00;;;;;;5072415;28;20778;-48
2021/09/26 02:14:48;;;;;;;6.20;5.70;;;24.70;54.80;;;;;;5071162;28;20578;-49
2021/09/26 02:17:15;;;;;;;6.70;6.10;;;24.50;55.10;;;;;;5074971;28;20473;-48
2021/09/26 02:19:41;;;;;;;8.73;6.00;;;24.30;55.60;;;;;;5072648;28;20446;-48
2021/09/26 02:22:08;;;;;;;6.17;5.57;;;24.30;55.60;;;;;;5073785;28;20516;-51
2021/09/26 02:24:35;;;;;;;6.57;6.07;;;24.40;55.40;;;;;;5078878;28;20438;-48
2021/09/26 02:27:01;;;;;;;6.97;6.37;;;24.50;55.20;;;;;;5078650;28;20936;-48
2021/09/26 02:29:28;;;;;;;5.87;5.37;;;24.50;55.10;;;;;;5084231;28;20479;-48
2021/09/26 02:31:54;;;;;;;6.43;5.87;;;24.50;55.30;;;;;;5086063;28;20191;-48
2021/09/26 02:34:20;;;;;;;7.57;6.80;;;24.50;55.20;;;;;;5075022;28;20445;-49
2021/09/26 02:36:45;;;;;;;6.27;5.77;;;24.50;55.30;;;;;;5075080;28;20453;-48
2021/09/26 02:39:16;;;;;;;7.70;5.93;;;24.50;55.30;;;;;;5078018;28;20184;-48
2021/09/26 02:41:53;;;;;;;6.63;5.50;;;24.50;55.10;;;;;;5082472;28;20305;-48
2021/09/26 02:44:24;;;;;;;6.40;5.80;;;24.50;55.30;;;;;;5066180;28;20830;-52
2021/09/26 02:46:58;;;;;;;5.67;5.17;;;24.50;55.20;;;;;;5078559;28;20849;-48
2021/09/26 02:49:24;;;;;;;6.80;6.20;;;24.50;55.10;;;;;;5074493;28;20818;-52
2021/09/26 02:51:51;;;;;;;6.87;6.27;;;24.50;55.20;;;;;;5076500;28;20450;-50
2021/09/26 02:54:19;;;;;;;6.80;6.10;;;24.60;55.00;;;;;;5079130;28;20473;-47
2021/09/26 02:56:45;;;;;;;6.43;5.90;;;24.40;55.30;;;;;;5083248;28;20445;-50
2021/09/26 02:59:11;;;;;;;5.47;4.97;;;24.50;55.30;;;;;;5075024;28;20443;-48
2021/09/26 03:01:48;;;;;;;6.40;5.90;;;24.50;55.30;;;;;;5074849;28;20975;-48
2021/09/26 03:04:13;;;;;;;6.30;5.57;;;24.50;55.40;;;;;;5073275;28;20202;-50
2021/09/26 03:06:39;;;;;;;6.70;6.10;;;24.50;55.40;;;;;;5079807;28;20505;-47
2021/09/26 03:09:04;;;;;;;5.97;5.47;;;24.40;55.40;;;;;;5079943;28;20658;-47
2021/09/26 03:11:30;;;;;;;6.40;5.30;;;24.30;55.40;;;;;;5079984;28;20222;-49
2021/09/26 03:13:55;;;;;;;6.07;5.57;;;24.30;55.60;;;;;;5076051;28;20312;-48
2021/09/26 03:16:21;;;;;;;7.13;6.43;;;24.50;55.30;;;;;;5074362;28;20196;-48
2021/09/26 03:18:47;;;;;;;6.03;5.57;;;24.40;55.30;;;;;;5076463;28;20262;-49
2021/09/26 03:21:13;;;;;;;6.70;6.20;;;24.40;55.30;;;;;;5076825;28;20272;-50
2021/09/26 03:23:39;;;;;;;7.23;5.70;;;24.40;55.40;;;;;;5076117;28;20307;-49
2021/09/26 03:26:04;;;;;;;6.57;5.97;;;24.50;55.30;;;;;;5076554;28;20996;-49
2021/09/26 03:28:30;;;;;;;6.87;6.17;;;24.40;55.50;;;;;;5076297;28;20245;-48
2021/09/26 03:30:55;;;;;;;5.77;5.30;;;24.30;55.80;;;;;;5075696;28;20665;-50
2021/09/26 03:33:21;;;;;;;6.00;5.40;;;24.20;55.70;;;;;;5073661;28;20184;-50
2021/09/26 03:35:47;;;;;;;6.27;5.70;;;24.30;55.70;;;;;;5076375;28;20199;-47
2021/09/26 03:38:12;;;;;;;6.13;5.63;;;24.30;55.60;;;;;;5074992;28;20199;-50
2021/09/26 03:40:38;;;;;;;5.70;5.17;;;24.40;55.60;;;;;;5084265;28;20227;-47
2021/09/26 03:43:03;;;;;;;6.60;6.00;;;24.30;55.40;;;;;;5075144;28;20191;-49
2021/09/26 03:45:29;;;;;;;6.27;5.67;;;24.40;55.50;;;;;;5079838;28;20192;-49
2021/09/26 03:47:55;;;;;;;7.20;6.60;;;24.50;55.40;;;;;;5078689;28;20195;-47
2021/09/26 03:50:20;;;;;;;6.50;5.90;;;24.50;55.20;;;;;;5076087;28;20236;-48
2021/09/26 03:52:46;;;;;;;6.83;6.23;;;24.30;55.70;;;;;;5076200;28;20238;-49
2021/09/26 03:55:12;;;;;;;7.23;6.53;;;24.30;55.70;;;;;;5075983;28;20553;-47
2021/09/26 03:57:39;;;;;;;6.47;5.97;;;24.30;56.20;;;;;;5082963;28;20196;-49
2021/09/26 04:00:06;;;;;;;6.10;5.50;;;24.20;55.70;;;;;;5076133;28;20824;-47
2021/09/26 04:02:32;;;;;;;6.83;6.23;;;24.20;55.70;;;;;;5075792;28;20433;-48
2021/09/26 04:04:57;;;;;;;6.40;5.90;;;24.30;55.80;;;;;;5081037;28;20454;-47
2021/09/26 04:07:23;;;;;;;7.50;6.20;;;24.30;55.60;;;;;;5089071;28;20199;-48
2021/09/26 04:09:48;;;;;;;6.87;6.37;;;24.40;55.60;;;;;;5081608;28;20194;-51
2021/09/26 04:12:15;;;;;;;10.60;5.70;;;24.30;55.40;;;;;;5075592;28;21789;-48
2021/09/26 04:14:40;;;;;;;5.80;5.23;;;24.40;55.50;;;;;;5077614;28;22273;-49
2021/09/26 04:17:06;;;;;;;6.20;5.70;;;24.30;55.70;;;;;;5077215;28;20442;-48
2021/09/26 04:19:32;;;;;;;5.70;5.20;;;24.40;55.60;;;;;;5075666;28;20200;-48
2021/09/26 04:21:58;;;;;;;6.23;5.73;;;24.30;55.50;;;;;;5077101;28;20281;-48
2021/09/26 04:24:24;;;;;;;6.47;5.80;;;24.30;55.40;;;;;;5076193;28;20437;-47
2021/09/26 04:26:50;;;;;;;6.37;5.83;;;24.30;55.30;;;;;;5073473;28;20202;-48
2021/09/26 04:29:15;;;;;;;9.43;5.67;;;24.20;55.70;;;;;;5073480;28;20224;-48
2021/09/26 04:31:41;;;;;;;6.00;5.50;;;24.20;55.90;;;;;;5077021;28;20198;-47
2021/09/26 04:34:07;;;;;;;6.00;5.30;;;24.20;55.70;;;;;;5075919;28;20256;-48
2021/09/26 04:36:33;;;;;;;6.53;5.50;;;24.10;55.80;;;;;;5078523;28;20564;-47
2021/09/26 04:38:58;;;;;;;6.87;6.27;;;24.30;55.70;;;;;;5073254;28;20198;-49
2021/09/26 04:41:24;;;;;;;5.60;5.20;;;24.40;55.30;;;;;;5075881;28;20226;-48
2021/09/26 04:43:49;;;;;;;6.87;6.27;;;24.50;55.30;;;;;;5075485;28;20638;-48
2021/09/26 04:46:15;;;;;;;6.53;6.03;;;24.10;55.60;;;;;;5074016;28;20278;-47
2021/09/26 04:48:41;;;;;;;6.57;6.07;;;24.10;55.80;;;;;;5074216;28;20581;-49
2021/09/26 04:51:06;;;;;;;5.83;5.33;;;24.00;56.00;;;;;;5079004;28;20245;-48
2021/09/26 04:53:32;;;;;;;6.30;5.70;;;24.20;55.70;;;;;;5074939;28;20786;-48
2021/09/26 04:55:58;;;;;;;6.10;5.60;;;24.20;55.70;;;;;;5055224;28;20192;-48
2021/09/26 04:58:24;;;;;;;7.23;5.87;;;24.30;55.60;;;;;;5078157;28;20195;-47
2021/09/26 05:00:50;;;;;;;6.87;6.27;;;24.30;55.40;;;;;;5078073;28;20486;-49
2021/09/26 05:03:16;;;;;;;5.80;5.30;;;24.10;55.70;;;;;;5077757;28;20321;-47
2021/09/26 05:05:42;;;;;;;6.30;5.53;;;24.10;55.70;;;;;;5078249;28;21005;-47
2021/09/26 05:08:07;;;;;;;6.73;6.07;;;24.10;55.80;;;;;;5076078;28;20202;-48
2021/09/26 05:10:33;;;;;;;6.20;5.60;;;24.30;55.20;;;;;;5072613;28;20666;-47
2021/09/26 05:12:59;;;;;;;11.60;6.27;;;24.50;54.80;;;;;;5077042;28;20204;-52
2021/09/26 05:15:25;;;;;;;8.43;5.77;;;24.50;55.20;;;;;;5075994;28;20217;-49
2021/09/26 05:17:50;;;;;;;6.93;6.23;;;24.50;54.80;;;;;;5076329;28;20434;-48
2021/09/26 05:20:16;;;;;;;6.90;6.30;;;24.50;55.00;;;;;;5076872;28;20187;-49
2021/09/26 05:22:42;;;;;;;5.90;5.30;;;24.50;54.30;;;;;;5069229;28;20215;-50
2021/09/26 05:25:08;;;;;;;6.87;6.27;;;24.50;54.20;;;;;;5073243;28;20935;-48
2021/09/26 05:27:34;;;;;;;5.70;5.20;;;24.50;54.10;;;;;;5071423;28;20722;-51
2021/09/26 05:29:59;;;;;;;8.40;6.50;;;24.60;54.10;;;;;;5075844;28;20481;-50
2021/09/26 05:32:25;;;;;;;6.73;6.00;;;24.60;54.10;;;;;;5073085;28;20633;-48
2021/09/26 05:34:51;;;;;;;7.50;5.60;;;24.50;54.20;;;;;;5076334;28;20206;-50
2021/09/26 05:37:16;;;;;;;6.20;5.60;;;24.50;54.10;;;;;;5079043;28;20275;-49
2021/09/26 05:39:42;;;;;;;6.13;5.63;;;24.40;54.20;;;;;;5079775;28;20960;-48
2021/09/26 05:42:08;;;;;;;8.60;5.87;;;24.40;54.20;;;;;;5058511;28;21085;-48
2021/09/26 05:44:35;;;;;;;8.40;6.53;;;24.30;54.20;;;;;;5072327;28;20195;-50
2021/09/26 05:47:03;;;;;;;6.37;5.77;;;24.30;54.20;;;;;;5075391;28;20206;-50
2021/09/26 05:49:28;;;;;;;7.03;6.40;;;24.30;54.40;;;;;;5078537;28;20953;-50
2021/09/26 05:51:54;;;;;;;6.00;5.57;;;24.20;54.60;;;;;;5074862;28;20441;-50
2021/09/26 05:54:20;;;;;;;6.90;6.30;;;24.10;54.80;;;;;;5075660;28;20286;-49
2021/09/26 05:56:46;;;;;;;5.70;5.30;;;23.90;55.50;;;;;;5074982;28;20236;-53
2021/09/26 05:59:12;;;;;;;7.50;6.80;;;23.70;56.00;;;;;;5077799;28;20469;-50
2021/09/26 06:01:39;;;;;;;6.07;5.57;;;23.80;55.80;;;;;;5075639;28;20576;-50
2021/09/26 06:04:04;;;;;;;6.70;6.00;;;23.70;55.80;;;;;;5077644;28;20529;-52
2021/09/26 06:06:30;;;;;;;6.50;5.90;;;23.80;55.70;;;;;;5087935;28;20524;-48
2021/09/26 06:08:55;;;;;;;6.00;5.40;;;23.80;55.70;;;;;;5082367;28;20662;-48
2021/09/26 06:11:21;;;;;;;7.23;6.40;;;23.90;55.60;;;;;;5092954;28;20226;-48
2021/09/26 06:13:47;;;;;;;7.37;6.70;;;23.90;55.60;;;;;;5088911;28;20187;-49
2021/09/26 06:16:12;;;;;;;6.70;6.00;;;23.90;56.00;;;;;;5084612;28;20664;-48
2021/09/26 06:18:38;;;;;;;7.03;6.40;;;23.70;56.10;;;;;;5091541;28;20191;-48
2021/09/26 06:21:03;;;;;;;5.80;5.30;;;23.60;56.40;;;;;;5088331;28;20246;-50
2021/09/26 06:23:29;;;;;;;6.80;6.17;;;23.60;56.70;;;;;;5092620;28;20187;-50
2021/09/26 06:25:55;;;;;;;7.03;6.43;;;23.70;56.70;;;;;;5088599;28;20241;-48
2021/09/26 06:28:20;;;;;;;6.30;5.80;;;23.40;57.30;;;;;;5067921;28;20269;-49
2021/09/26 06:30:47;;;;;;;7.60;6.83;;;23.30;57.60;;;;;;5092278;28;20274;-54
2021/09/26 06:33:12;;;;;;;6.80;6.20;;;23.40;57.50;;;;;;5082176;28;20195;-48
2021/09/26 06:35:38;;;;;;;7.10;6.47;;;23.40;57.30;;;;;;5084529;28;20677;-48
2021/09/26 06:38:04;;;;;;;6.80;6.30;;;23.60;57.20;;;;;;5088868;28;20194;-47
2021/09/26 06:40:30;;;;;;;6.47;5.97;;;23.70;56.90;;;;;;5088256;28;20294;-49
2021/09/26 06:42:56;;;;;;;9.87;6.70;;;23.20;58.30;;;;;;5087585;28;20296;-49
2021/09/26 06:45:25;;;;;;;6.60;6.00;;;22.90;59.40;;;;;;5082614;28;20532;-58
2021/09/26 06:47:51;;;;;;;6.57;5.77;;;22.90;59.60;;;;;;5084979;28;20467;-52
2021/09/26 06:50:16;;;;;;;6.20;5.70;;;23.20;58.80;;;;;;5087326;28;20429;-48
2021/09/26 06:52:42;;;;;;;6.60;6.00;;;23.50;58.30;;;;;;5086997;28;20441;-47
2021/09/26 06:55:09;;;;;;;6.93;6.07;;;23.80;57.90;;;;;;5094026;28;20199;-47
2021/09/26 06:57:35;;;;;;;6.27;5.80;;;23.90;57.70;;;;;;5087263;28;20252;-48
2021/09/26 07:00:01;;;;;;;6.67;6.07;;;24.00;57.60;;;;;;5092508;28;20504;-48
2021/09/26 07:02:27;;;;;;;9.47;6.17;;;24.20;57.40;;;;;;5081921;28;20254;-47
2021/09/26 07:04:56;;;;;;;6.63;5.93;;;24.30;56.90;;;;;;5088162;28;20210;-47
2021/09/26 07:07:24;;;;;;;6.50;6.00;;;24.50;57.00;;;;;;5085662;28;20429;-47
2021/09/26 07:09:51;;;;;;;5.87;5.33;;;24.60;57.10;;;;;;5092589;28;20512;-48
2021/09/26 07:12:17;;;;;;;6.83;6.23;;;24.60;57.00;;;;;;5080677;28;20445;-49
2021/09/26 07:14:44;;;;;;;6.50;5.90;;;24.70;57.00;;;;;;5085172;28;20421;-46
2021/09/26 07:17:09;;;;;;;7.33;5.90;;;24.70;56.70;;;;;;5085265;28;20437;-49
2021/09/26 07:19:35;;;;;;;5.83;5.33;;;24.80;56.80;;;;;;5088116;28;20444;-48
2021/09/26 07:22:00;;;;;;;5.77;5.27;;;24.90;56.70;;;;;;5092429;28;20597;-52
2021/09/26 07:24:26;;;;;;;6.20;5.60;;;24.80;56.70;;;;;;5091408;28;20191;-48
2021/09/26 07:26:52;;;;;;;6.33;5.80;;;24.70;56.90;;;;;;5090427;28;20662;-47
2021/09/26 07:29:18;;;;;;;6.37;5.87;;;24.60;57.00;;;;;;5089278;28;20237;-50
2021/09/26 07:31:44;;;;;;;7.37;6.10;;;24.70;56.90;;;;;;5080700;28;20560;-49
2021/09/26 07:34:10;;;;;;;6.23;5.63;;;24.50;57.60;;;;;;5092105;28;20549;-48
2021/09/26 07:36:36;;;;;;;7.43;6.00;;;24.60;57.40;;;;;;5088139;28;20188;-48
2021/09/26 07:39:01;;;;;;;7.23;6.73;;;24.80;57.80;;;;;;5087449;28;20658;-48
2021/09/26 07:41:27;;;;;;;6.70;6.10;;;25.00;56.80;;;;;;5087050;28;20219;-51
2021/09/26 07:43:53;;;;;;;7.03;6.43;;;25.10;56.40;;;;;;5089967;28;20601;-51
2021/09/26 07:46:18;;;;;;;7.43;6.40;;;25.20;56.50;;;;;;5086068;28;20191;-52
2021/09/26 07:48:44;;;;;;;6.80;6.17;;;25.00;57.00;;;;;;5088462;28;20198;-51
2021/09/26 07:51:09;;;;;;;6.37;5.73;;;25.10;57.50;;;;;;5087283;28;20221;-48
2021/09/26 07:53:35;;;;;;;6.30;5.80;;;25.40;56.40;;;;;;5080594;28;20257;-47
2021/09/26 07:56:03;;;;;;;8.63;6.00;;;25.60;55.80;;;;;;5084742;28;20198;-49
2021/09/26 07:58:29;;;;;;;5.90;5.40;;;25.70;55.30;;;;;;5078778;28;20196;-51
2021/09/26 08:00:55;;;;;;;6.40;5.80;;;25.90;54.90;;;;;;5081783;28;20916;-47
2021/09/26 08:03:21;;;;;;;6.80;6.20;;;25.90;54.80;;;;;;5089751;28;20241;-48
2021/09/26 08:05:46;;;;;;;6.20;5.60;;;25.80;55.20;;;;;;5080676;28;20909;-48
2021/09/26 08:08:12;;;;;;;6.87;6.13;;;25.70;55.40;;;;;;5083648;28;20191;-47
2021/09/26 08:10:38;;;;;;;6.53;5.93;;;25.70;55.70;;;;;;5077658;28;20806;-51
2021/09/26 08:13:04;;;;;;;6.83;6.20;;;25.70;55.60;;;;;;5091687;28;20960;-49
2021/09/26 08:15:30;;;;;;;6.33;5.73;;;25.80;55.50;;;;;;5075351;28;20202;-47
2021/09/26 08:17:55;;;;;;;6.90;6.10;;;25.90;55.40;;;;;;5072881;28;20196;-48
2021/09/26 08:20:21;;;;;;;7.00;6.37;;;25.90;55.30;;;;;;5071852;28;20246;-48
2021/09/26 08:22:47;;;;;;;7.93;5.80;;;25.90;55.20;;;;;;5071840;28;20207;-48
2021/09/26 08:25:13;;;;;;;8.47;6.40;;;25.90;55.20;;;;;;5083229;28;20199;-49
2021/09/26 08:27:40;;;;;;;6.87;6.17;;;25.90;55.60;;;;;;5072410;28;20199;-49
2021/09/26 08:30:08;;;;;;;6.10;5.70;;;26.00;55.80;;;;;;5071837;28;20895;-48
2021/09/26 08:32:35;;;;;;;6.80;6.07;;;26.00;55.80;;;;;;5083076;28;20486;-48
2021/09/26 08:35:01;;;;;;;6.37;5.87;;;26.00;55.70;;;;;;5091994;28;20421;-47
2021/09/26 08:37:27;;;;;;;6.40;5.90;;;25.80;56.50;;;;;;5090745;28;20424;-48
2021/09/26 08:39:52;;;;;;;8.37;7.13;;;25.80;56.60;;;;;;5092193;28;20425;-47
2021/09/26 08:42:18;;;;;;;6.83;6.23;;;25.80;56.70;;;;;;5092218;28;20674;-51
2021/09/26 08:44:45;;;;;;;8.33;7.17;;;25.80;57.00;;;;;;5073395;28;20191;-47
2021/09/26 08:47:11;;;;;;;6.97;6.37;;;25.80;57.20;;;;;;5072033;28;20188;-48
2021/09/26 08:49:37;;;;;;;8.27;6.70;;;26.00;57.10;;;;;;5071673;28;20513;-47
2021/09/26 08:52:03;;;;;;;8.93;6.53;;;26.00;56.80;;;;;;5071782;28;21008;-47
2021/09/26 08:54:29;;;;;;;9.20;6.07;;;26.10;56.60;;;;;;5080200;28;20536;-50
2021/09/26 08:56:54;;;;;;;8.27;6.70;;;26.20;56.50;;;;;;5080578;28;20206;-47
2021/09/26 08:59:20;;;;;;;6.83;6.20;;;26.20;56.40;;;;;;5087131;28;20199;-48
2021/09/26 09:01:45;;;;;;;8.17;6.67;;;26.10;56.20;;;;;;5071737;28;20651;-48
2021/09/26 09:04:11;;;;;;;5.93;5.43;;;26.10;56.20;;;;;;5082368;28;20192;-48
2021/09/26 09:06:45;;;;;;;9.37;6.63;;;26.10;56.60;;;;;;5071740;28;20222;-47
2021/09/26 09:09:16;;;;;;;11.63;6.13;;;25.90;57.00;;;;;;5071139;28;20206;-47
2021/09/26 09:12:02;;;;;;;7.97;7.10;;;25.90;57.30;;;;;;5072925;28;20465;-47
2021/09/26 09:14:47;;;;;;;9.53;6.77;;;25.90;57.40;;;;;;5078711;28;20461;-47
2021/09/26 09:17:27;;;;;;;10.50;7.10;;;25.70;58.00;;;;;;5073541;28;20422;-47
2021/09/26 09:20:17;;;;;;;9.63;6.70;;;25.60;58.40;;;;;;5071024;28;20525;-47
2021/09/26 09:22:44;;;;;;;8.00;7.30;;;25.80;58.30;;;;;;5081014;28;20539;-48
2021/09/26 09:25:38;;;;;;;14.60;7.57;;;25.80;58.10;;;;;;5083357;28;20842;-48
2021/09/26 09:28:07;;;;;;;8.53;7.43;;;25.70;58.30;;;;;;5070595;28;20470;-50
2021/09/26 09:30:38;;;;;;;8.10;7.30;;;25.70;58.30;;;;;;5070839;28;20429;-51
2021/09/26 09:33:06;;;;;;;9.00;7.10;;;25.70;58.60;;;;;;5085740;28;20429;-48
2021/09/26 09:35:41;;;;;;;10.80;7.77;;;25.60;58.50;;;;;;5089602;28;20432;-48
2021/09/26 09:38:07;;;;;;;7.87;7.13;;;25.60;58.50;;;;;;5091094;28;20428;-49
2021/09/26 09:40:34;;;;;;;8.43;6.83;;;25.80;58.10;;;;;;5091808;28;21051;-48
2021/09/26 09:43:00;;;;;;;8.73;7.60;;;25.90;57.70;;;;;;5090164;28;20920;-47
2021/09/26 09:45:34;;;;;;;7.60;6.90;;;26.00;57.80;;;;;;5080708;28;20426;-47
2021/09/26 09:48:02;;;;;;;8.00;7.23;;;25.90;59.00;;;;;;5071113;28;20191;-48
2021/09/26 09:50:42;;;;;;;9.43;6.87;;;25.90;59.10;;;;;;5071403;28;20434;-47
2021/09/26 09:53:29;;;;;;;9.07;7.57;;;26.00;58.70;;;;;;5072411;28;20430;-48
2021/09/26 09:56:17;;;;;;;7.50;6.90;;;26.10;58.20;;;;;;5086806;28;20461;-47
2021/09/26 09:58:51;;;;;;;7.97;6.43;;;26.00;56.90;;;;;;5068852;28;20924;-47
2021/09/26 10:01:27;;;;;;;9.23;8.30;;;26.00;57.20;;;;;;5078148;28;20563;-47
2021/09/26 10:04:00;;;;;;;8.40;7.50;;;26.10;56.90;;;;;;5089753;28;20445;-48
2021/09/26 10:06:29;;;;;;;8.83;7.77;;;26.10;55.80;;;;;;5091367;28;20437;-47
2021/09/26 10:08:58;;;;;;;9.53;7.80;;;26.10;55.70;;;;;;5090862;28;20429;-49
2021/09/26 10:11:24;;;;;;;8.20;7.40;;;26.10;55.70;;;;;;5090200;28;20422;-52
2021/09/26 10:13:50;;;;;;;9.57;8.67;;;26.20;54.50;;;;;;5079511;28;20817;-53
2021/09/26 10:16:16;;;;;;;10.20;9.10;;;26.10;54.10;;;;;;5087591;28;20430;-47
2021/09/26 10:18:44;;;;;;;9.70;8.90;;;25.80;54.30;;;;;;5083128;28;20291;-48
2021/09/26 10:21:11;;;;;;;10.77;9.57;;;25.80;54.60;;;;;;5083908;28;20704;-50
2021/09/26 10:23:41;;;;;;;9.43;8.63;;;25.80;54.70;;;;;;5078605;28;20545;-49
2021/09/26 10:26:08;;;;;;;10.83;9.50;;;25.90;54.70;;;;;;5084872;28;20435;-48
2021/09/26 10:28:34;;;;;;;13.43;9.70;;;25.90;54.90;;;;;;5082712;28;20556;-48
2021/09/26 10:31:03;;;;;;;10.90;10.00;;;26.00;55.40;;;;;;5080885;28;20438;-49
2021/09/26 10:33:29;;;;;;;9.90;8.90;;;26.10;56.00;;;;;;5077347;28;20790;-47
2021/09/26 10:35:57;;;;;;;9.17;8.30;;;25.80;57.00;;;;;;5078227;28;20444;-48
2021/09/26 10:38:23;;;;;;;9.87;7.97;;;25.40;58.30;;;;;;5079621;28;20433;-47
2021/09/26 10:40:49;;;;;;;9.93;9.03;;;25.00;59.20;;;;;;5077443;28;20482;-47
2021/09/26 10:43:20;;;;;;;13.00;9.50;;;25.00;59.80;;;;;;5083341;28;20941;-46
2021/09/26 10:45:48;;;;;;;10.43;9.47;;;25.30;59.50;;;;;;5075145;28;20187;-47
2021/09/26 10:48:15;;;;;;;10.07;9.20;;;25.50;59.30;;;;;;5084765;28;20430;-48
2021/09/26 10:50:42;;;;;;;10.77;9.87;;;25.50;58.70;;;;;;5087755;28;20777;-49
2021/09/26 10:53:10;;;;;;;9.83;8.93;;;25.30;59.70;;;;;;5078446;28;20449;-49
2021/09/26 10:55:36;;;;;;;10.33;9.23;;;24.50;60.90;;;;;;5080677;28;20434;-49
2021/09/26 10:58:05;;;;;;;10.17;9.33;;;24.60;61.70;;;;;;5078930;28;20432;-47
2021/09/26 11:00:51;;;;;;;10.07;9.20;;;24.70;61.10;;;;;;5085243;28;20435;-48
2021/09/26 11:03:21;;;;;;;11.43;9.57;;;24.80;61.60;;;;;;5078580;28;20444;-47
2021/09/26 11:05:52;;;;;;;9.13;8.30;;;24.80;61.40;;;;;;5086525;28;20529;-48
2021/09/26 11:08:23;;;;;;;9.67;8.50;;;25.00;61.00;;;;;;5081281;28;20536;-48
2021/09/26 11:10:57;;;;;;;9.77;8.40;;;25.10;60.10;;;;;;5086228;28;20441;-47
2021/09/26 11:13:46;;;;;;;9.37;8.60;;;25.00;59.90;;;;;;5079751;28;20591;-47
2021/09/26 11:16:17;;;;;;;9.17;8.30;;;24.90;60.60;;;;;;5078338;28;20441;-46
2021/09/26 11:18:59;;;;;;;9.30;8.60;;;24.80;59.70;;;;;;5089696;28;20932;-48
2021/09/26 11:21:37;;;;;;;9.90;8.70;;;24.90;60.00;;;;;;5083938;28;20489;-47
2021/09/26 11:24:09;;;;;;;8.93;8.10;;;24.80;59.70;;;;;;5081577;28;20441;-46
2021/09/26 11:26:59;;;;;;;8.20;7.50;;;24.90;59.50;;;;;;5085480;28;20469;-46
2021/09/26 11:29:51;;;;;;;9.00;8.20;;;24.80;59.30;;;;;;5080479;28;20473;-52
2021/09/26 11:32:19;;;;;;;10.40;8.70;;;25.00;59.00;;;;;;5084596;28;20804;-48
2021/09/26 11:34:48;;;;;;;9.10;8.40;;;25.10;58.80;;;;;;5085909;28;20444;-51
2021/09/26 11:37:14;;;;;;;8.07;7.27;;;25.20;58.70;;;;;;5083271;28;20460;-52
2021/09/26 11:39:51;;;;;;;9.73;8.83;;;25.20;58.30;;;;;;5080744;28;20434;-50
2021/09/26 11:42:38;;;;;;;9.13;8.33;;;25.30;58.30;;;;;;5083690;28;20492;-48
2021/09/26 11:45:08;;;;;;;9.60;8.70;;;25.40;57.80;;;;;;5080448;28;20441;-47
2021/09/26 11:47:34;;;;;;;9.07;8.20;;;25.30;57.80;;;;;;5091589;28;20421;-52
2021/09/26 11:50:08;;;;;;;8.97;8.27;;;25.40;57.80;;;;;;5074876;28;20435;-48
2021/09/26 11:52:43;;;;;;;8.30;7.63;;;25.60;56.70;;;;;;5082487;28;20661;-49
2021/09/26 11:55:10;;;;;;;9.00;8.17;;;25.40;56.20;;;;;;5080673;28;20525;-47
2021/09/26 11:57:36;;;;;;;10.67;9.40;;;25.40;57.10;;;;;;5086368;28;20817;-47
2021/09/26 12:00:03;;;;;;;8.87;8.17;;;25.50;57.60;;;;;;5087510;28;20437;-50
2021/09/26 12:02:33;;;;;;;9.07;8.27;;;25.40;56.40;;;;;;5072566;28;20298;-47
2021/09/26 12:04:58;;;;;;;11.37;10.37;;;25.40;56.80;;;;;;5079872;28;20838;-47
2021/09/26 12:07:29;;;;;;;10.10;9.20;;;25.40;57.10;;;;;;5088546;28;20439;-49
2021/09/26 12:09:55;;;;;;;11.07;9.97;;;25.40;57.10;;;;;;5074198;28;20199;-47
2021/09/26 12:12:26;;;;;;;10.47;9.47;;;25.40;57.30;;;;;;5089912;28;20437;-47
2021/09/26 12:15:01;;;;;;;10.97;9.80;;;25.30;57.90;;;;;;5086452;28;20650;-48
2021/09/26 12:17:29;;;;;;;11.80;10.60;;;25.20;58.20;;;;;;5083063;28;20456;-48
2021/09/26 12:20:08;;;;;;;10.40;9.40;;;25.20;58.70;;;;;;5084742;28;20455;-50
2021/09/26 12:22:34;;;;;;;11.53;10.43;;;25.20;58.80;;;;;;5091377;28;20889;-48
2021/09/26 12:25:04;;;;;;;10.77;9.70;;;25.20;58.60;;;;;;5077969;28;20487;-47
2021/09/26 12:27:34;;;;;;;10.53;9.43;;;25.40;58.50;;;;;;5078081;28;20486;-49
2021/09/26 12:30:05;;;;;;;10.03;8.70;;;25.40;58.10;;;;;;5081237;28;21040;-47
2021/09/26 12:32:35;;;;;;;9.33;8.20;;;25.30;58.10;;;;;;5085334;28;20434;-48
2021/09/26 12:35:04;;;;;;;9.80;8.77;;;25.20;57.80;;;;;;5080455;28;20478;-47
2021/09/26 12:37:33;;;;;;;9.30;8.40;;;25.10;58.00;;;;;;5078913;28;20438;-50
2021/09/26 12:40:06;;;;;;;10.53;9.63;;;25.10;58.20;;;;;;5079743;28;20975;-48
2021/09/26 12:42:36;;;;;;;8.57;7.77;;;25.10;58.10;;;;;;5064201;28;20880;-48
2021/09/26 12:45:32;;;;;;;9.67;8.77;;;25.30;57.00;;;;;;5089421;28;20483;-47
2021/09/26 12:47:59;;;;;;;8.67;7.93;;;25.50;56.90;;;;;;5089206;28;20457;-47
2021/09/26 12:50:26;;;;;;;7.60;6.90;;;25.50;57.10;;;;;;5085779;28;20429;-48
2021/09/26 12:52:53;;;;;;;8.83;8.13;;;25.60;56.40;;;;;;5084876;28;20442;-46